createdAt,value
2022-10-11T00:02:25.253Z,8.02
2022-10-11T00:07:24.193Z,7.88
2022-10-11T00:09:52.107Z,8.68
2022-10-11T00:12:19.445Z,8.38
2022-10-11T00:14:47.081Z,7.85
2022-10-11T00:17:20.261Z,7.15
2022-10-11T00:19:52.415Z,7.88
2022-10-11T00:22:24.755Z,7.57
2022-10-11T00:24:55.105Z,8.10
2022-10-11T00:27:25.387Z,6.63
2022-10-11T00:29:55.588Z,7.72
2022-10-11T00:32:24.080Z,7.18
2022-10-11T00:34:51.411Z,8.52
2022-10-11T00:37:20.532Z,8.43
2022-10-11T00:39:54.520Z,7.55
2022-10-11T00:42:23.098Z,8.85
2022-10-11T00:44:51.363Z,7.90
2022-10-11T00:47:22.003Z,7.32
2022-10-11T00:50:04.083Z,7.22
2022-10-11T00:52:50.451Z,8.70
2022-10-11T00:55:26.936Z,9.35
2022-10-11T00:57:56.733Z,7.22
2022-10-11T01:00:30.478Z,8.90
2022-10-11T01:03:04.052Z,6.60
2022-10-11T01:08:03.507Z,7.68
2022-10-11T01:10:33.524Z,8.55
2022-10-11T01:13:33.150Z,7.93
2022-10-11T01:16:16.116Z,7.07
2022-10-11T01:18:43.877Z,7.50
2022-10-11T01:21:17.585Z,7.40
2022-10-11T01:26:41.414Z,6.43
2022-10-11T01:29:30.298Z,7.82
2022-10-11T01:32:16.477Z,7.38
2022-10-11T01:35:06.409Z,7.60
2022-10-11T01:37:41.325Z,7.88
2022-10-11T01:40:22.306Z,7.75
2022-10-11T01:42:57.486Z,7.35
2022-10-11T01:45:27.590Z,8.07
2022-10-11T01:48:11.478Z,8.48
2022-10-11T01:50:45.094Z,6.03
2022-10-11T01:53:40.216Z,7.28
2022-10-11T01:56:37.713Z,7.28
2022-10-11T01:59:08.337Z,7.20
2022-10-11T02:04:33.002Z,7.35
2022-10-11T02:07:15.786Z,6.85
2022-10-11T02:09:52.882Z,7.97
2022-10-11T02:12:43.528Z,8.48
2022-10-11T02:15:19.844Z,7.75
2022-10-11T02:17:55.549Z,7.90
2022-10-11T02:20:29.361Z,6.65
2022-10-11T02:23:05.818Z,6.93
2022-10-11T02:25:36.522Z,7.90
2022-10-11T02:28:20.514Z,7.50
2022-10-11T02:30:54.592Z,8.20
2022-10-11T02:33:31.984Z,7.18
2022-10-11T02:36:08.522Z,6.70
2022-10-11T02:39:03.704Z,6.65
2022-10-11T02:41:40.384Z,8.10
2022-10-11T02:44:23.909Z,8.15
2022-10-11T02:46:54.786Z,6.97
2022-10-11T02:49:25.203Z,8.13
2022-10-11T02:51:58.673Z,8.43
2022-10-11T02:56:59.944Z,7.55
2022-10-11T03:02:03.987Z,7.07
2022-10-11T03:07:02.015Z,7.78
2022-10-11T03:09:34.905Z,7.05
2022-10-11T03:12:04.955Z,7.22
2022-10-11T03:14:35.488Z,8.18
2022-10-11T03:17:30.938Z,7.28
2022-10-11T03:19:57.599Z,7.53
2022-10-11T03:22:28.360Z,8.10
2022-10-11T03:25:04.341Z,8.10
2022-10-11T03:27:33.492Z,7.35
2022-10-11T03:30:05.176Z,7.47
2022-10-11T03:32:41.454Z,7.13
2022-10-11T03:35:15.363Z,7.13
2022-10-11T03:37:48.564Z,7.60
2022-10-11T03:40:21.245Z,7.75
2022-10-11T03:42:51.752Z,8.57
2022-10-11T03:45:21.894Z,6.78
2022-10-11T03:47:50.377Z,7.40
2022-10-11T03:50:20.629Z,6.43
2022-10-11T03:52:53.449Z,7.40
2022-10-11T03:55:24.009Z,6.85
2022-10-11T03:57:53.963Z,7.03
2022-10-11T04:00:27.595Z,7.55
2022-10-11T04:03:03.701Z,7.80
2022-10-11T04:05:35.634Z,7.75
2022-10-11T04:08:09.836Z,6.97
2022-10-11T04:10:44.672Z,7.45
2022-10-11T04:13:16.372Z,6.75
2022-10-11T04:15:50.091Z,7.50
2022-10-11T04:18:23.545Z,8.15
2022-10-11T04:20:56.862Z,5.30
2022-10-11T04:23:27.431Z,8.07
2022-10-11T04:26:00.542Z,8.60
2022-10-11T04:28:33.992Z,7.32
2022-10-11T04:31:05.239Z,7.70
2022-10-11T04:33:33.255Z,8.10
2022-10-11T04:36:04.148Z,6.70
2022-10-11T04:38:35.240Z,6.63
2022-10-11T04:41:15.577Z,7.88
2022-10-11T04:43:43.252Z,7.53
2022-10-11T04:46:13.664Z,7.75
2022-10-11T04:48:44.337Z,7.68
2022-10-11T04:51:12.216Z,7.78
2022-10-11T04:53:43.077Z,8.27
2022-10-11T04:56:15.132Z,6.40
2022-10-11T04:58:42.948Z,8.82
2022-10-11T05:01:16.164Z,7.07
2022-10-11T05:03:46.393Z,7.20
2022-10-11T05:06:19.921Z,8.05
2022-10-11T05:08:50.421Z,7.30
2022-10-11T05:11:21.292Z,7.95
2022-10-11T05:13:51.955Z,6.85
2022-10-11T05:16:23.425Z,9.05
2022-10-11T05:18:57.135Z,7.65
2022-10-11T05:21:29.516Z,7.75
2022-10-11T05:24:02.865Z,8.63
2022-10-11T05:26:33.061Z,6.88
2022-10-11T05:29:02.855Z,8.80
2022-10-11T05:31:38.201Z,7.65
2022-10-11T05:34:06.093Z,7.50
2022-10-11T05:36:36.796Z,7.78
2022-10-11T05:39:10.639Z,6.88
2022-10-11T05:41:41.805Z,8.05
2022-10-11T05:44:12.419Z,7.80
2022-10-11T05:46:43.749Z,7.60
2022-10-11T05:49:14.492Z,7.85
2022-10-11T05:51:48.641Z,7.55
2022-10-11T05:54:19.274Z,8.57
2022-10-11T05:56:55.761Z,8.30
2022-10-11T05:59:26.601Z,7.75
2022-10-11T06:01:57.092Z,7.53
2022-10-11T06:04:28.270Z,6.95
2022-10-11T06:06:59.002Z,7.05
2022-10-11T06:09:34.893Z,7.53
2022-10-11T06:12:05.276Z,8.27
2022-10-11T06:14:52.606Z,7.43
2022-10-11T06:17:29.027Z,9.13
2022-10-11T06:19:59.410Z,9.07
2022-10-11T06:22:32.887Z,7.32
2022-10-11T06:27:33.620Z,7.43
2022-10-11T06:30:04.900Z,9.02
2022-10-11T06:32:41.913Z,8.27
2022-10-11T06:35:12.197Z,8.55
2022-10-11T06:37:43.187Z,7.72
2022-10-11T06:40:17.767Z,7.70
2022-10-11T06:42:54.560Z,9.40
2022-10-11T06:45:28.811Z,7.50
2022-10-11T06:48:01.878Z,9.02
2022-10-11T06:50:57.927Z,8.50
2022-10-11T06:53:31.731Z,11.15
2022-10-11T06:56:13.099Z,8.05
2022-10-11T06:58:44.073Z,8.32
2022-10-11T07:01:26.677Z,7.72
2022-10-11T07:04:01.925Z,10.20
2022-10-11T07:06:31.781Z,7.85
2022-10-11T07:09:06.175Z,8.40
2022-10-11T07:11:34.799Z,8.77
2022-10-11T07:14:08.129Z,8.68
2022-10-11T07:19:10.851Z,8.68
2022-10-11T07:21:41.484Z,8.13
2022-10-11T07:24:09.650Z,8.93
2022-10-11T07:26:43.653Z,8.98
2022-10-11T07:29:17.422Z,8.80
2022-10-11T07:31:48.187Z,7.72
2022-10-11T07:34:16.456Z,10.25
2022-10-11T07:36:52.829Z,8.45
2022-10-11T07:39:21.480Z,8.07
2022-10-11T07:41:52.571Z,10.57
2022-10-11T07:44:21.113Z,8.18
2022-10-11T07:46:52.503Z,9.20
2022-10-11T07:49:24.207Z,7.65
2022-10-11T07:51:59.086Z,10.70
2022-10-11T07:54:41.809Z,8.35
2022-10-11T07:57:15.801Z,11.20
2022-10-11T07:59:50.458Z,9.73
2022-10-11T08:02:24.659Z,10.50
2022-10-11T08:04:58.211Z,8.90
2022-10-11T08:10:05.469Z,9.27
2022-10-11T08:12:36.084Z,8.93
2022-10-11T08:15:13.433Z,7.80
2022-10-11T08:17:49.999Z,8.95
2022-10-11T08:20:23.911Z,8.60
2022-10-11T08:22:51.735Z,9.35
2022-10-11T08:25:22.918Z,10.30
2022-10-11T08:27:51.567Z,8.50
2022-10-11T08:30:22.669Z,8.40
2022-10-11T08:32:53.476Z,10.38
2022-10-11T08:35:21.218Z,9.20
2022-10-11T08:37:49.132Z,12.15
2022-10-11T08:40:23.193Z,10.75
2022-10-11T08:43:04.781Z,12.25
2022-10-11T08:46:01.911Z,10.77
2022-10-11T08:48:37.278Z,10.93
2022-10-11T08:51:35.860Z,14.07
2022-10-11T08:54:21.300Z,10.50
2022-10-11T08:56:56.351Z,12.50
2022-10-11T08:59:45.943Z,12.35
2022-10-11T09:02:55.804Z,13.57
2022-10-11T09:05:28.307Z,10.32
2022-10-11T09:08:32.475Z,15.60
2022-10-11T09:13:58.175Z,13.13
2022-10-11T09:16:48.718Z,13.65
2022-10-11T09:19:32.096Z,15.57
2022-10-11T09:22:32.275Z,16.13
2022-10-11T09:25:12.249Z,11.85
2022-10-11T09:28:13.315Z,15.38
2022-10-11T09:30:51.147Z,14.57
2022-10-11T09:33:42.790Z,13.65
2022-10-11T09:36:40.117Z,12.35
2022-10-11T09:39:30.873Z,9.93
2022-10-11T09:42:11.488Z,10.25
2022-10-11T09:44:50.413Z,12.52
2022-10-11T09:47:30.078Z,10.35
2022-10-11T09:50:06.613Z,11.00
2022-10-11T09:52:34.822Z,13.13
2022-10-11T09:55:29.328Z,12.80
2022-10-11T09:58:00.358Z,11.90
2022-10-11T10:00:33.725Z,11.02
2022-10-11T10:05:37.563Z,14.45
2022-10-11T10:08:11.048Z,10.35
2022-10-11T10:11:04.652Z,11.75
2022-10-11T10:13:51.422Z,9.52
2022-10-11T10:16:22.375Z,11.55
2022-10-11T10:19:23.391Z,10.45
2022-10-11T10:21:58.353Z,12.98
2022-10-11T10:24:34.949Z,12.45
2022-10-11T10:27:14.922Z,12.07
2022-10-11T10:30:01.037Z,12.85
2022-10-11T10:32:55.826Z,12.32
2022-10-11T10:35:36.250Z,12.02
2022-10-11T10:38:16.902Z,11.60
2022-10-11T10:40:49.756Z,12.10
2022-10-11T10:43:27.029Z,12.63
2022-10-11T10:46:03.712Z,13.35
2022-10-11T10:49:34.824Z,11.05
2022-10-11T10:52:10.637Z,10.57
2022-10-11T10:55:00.409Z,10.52
2022-10-11T10:57:46.975Z,10.10
2022-10-11T11:00:22.154Z,10.25
2022-10-11T11:03:18.356Z,12.52
2022-10-11T11:06:05.251Z,11.00
2022-10-11T11:08:55.035Z,10.85
2022-10-11T11:11:54.312Z,11.15
2022-10-11T11:14:44.157Z,12.85
2022-10-11T11:17:30.885Z,11.45
2022-10-11T11:20:06.249Z,10.55
2022-10-11T11:22:49.409Z,11.93
2022-10-11T11:25:27.554Z,13.82
2022-10-11T11:28:16.458Z,12.20
2022-10-11T11:31:11.617Z,15.32
2022-10-11T11:33:48.910Z,12.18
2022-10-11T11:36:27.744Z,13.15
2022-10-11T11:39:05.907Z,11.30
2022-10-11T11:41:41.366Z,12.38
2022-10-11T11:44:31.213Z,14.02
2022-10-11T11:47:11.915Z,12.65
2022-10-11T11:49:48.774Z,12.57
2022-10-11T11:52:31.476Z,15.65
2022-10-11T11:55:08.107Z,12.05
2022-10-11T11:57:49.883Z,13.25
2022-10-11T12:00:27.633Z,13.63
2022-10-11T12:03:21.795Z,17.38
2022-10-11T12:08:42.063Z,13.13
2022-10-11T12:11:26.284Z,14.15
2022-10-11T12:13:59.466Z,12.80
2022-10-11T12:16:34.816Z,12.43
2022-10-11T12:19:09.538Z,12.05
2022-10-11T12:21:44.501Z,10.73
2022-10-11T12:24:24.539Z,13.80
2022-10-11T12:27:18.478Z,12.60
2022-10-11T12:29:52.944Z,11.55
2022-10-11T12:32:35.879Z,10.77
2022-10-11T12:35:38.500Z,11.27
2022-10-11T12:38:21.681Z,10.35
2022-10-11T12:41:00.721Z,10.82
2022-10-11T12:43:36.349Z,11.70
2022-10-11T12:46:31.186Z,11.05
2022-10-11T12:49:09.604Z,10.98
2022-10-11T12:51:54.016Z,11.98
2022-10-11T12:54:46.337Z,12.30
2022-10-11T12:57:23.837Z,11.10
2022-10-11T12:59:54.983Z,12.18
2022-10-11T13:02:44.937Z,12.98
2022-10-11T13:05:31.453Z,12.45
2022-10-11T13:08:12.648Z,10.90
2022-10-11T13:10:46.369Z,13.48
2022-10-11T13:13:40.243Z,9.82
2022-10-11T13:19:02.867Z,10.45
2022-10-11T13:21:38.807Z,10.63
2022-10-11T13:24:18.823Z,8.98
2022-10-11T13:26:52.192Z,8.73
2022-10-11T13:29:29.757Z,10.10
2022-10-11T13:32:04.504Z,12.82
2022-10-11T13:34:39.429Z,12.27
2022-10-11T13:37:13.314Z,11.25
2022-10-11T13:39:45.493Z,13.00
2022-10-11T13:42:19.311Z,11.50
2022-10-11T13:44:47.872Z,10.95
2022-10-11T13:47:27.989Z,10.45
2022-10-11T13:50:17.264Z,11.20
2022-10-11T13:53:01.201Z,10.52
2022-10-11T13:56:00.053Z,10.27
2022-10-11T13:58:46.274Z,10.73
2022-10-11T14:01:22.594Z,11.50
2022-10-11T14:04:04.096Z,11.27
2022-10-11T14:06:39.908Z,12.77
2022-10-11T14:09:17.704Z,10.40
2022-10-11T14:11:52.035Z,10.02
2022-10-11T14:14:33.912Z,14.23
2022-10-11T14:17:16.999Z,11.55
2022-10-11T14:19:47.328Z,11.68
2022-10-11T14:22:18.023Z,11.23
2022-10-11T14:24:49.062Z,11.32
2022-10-11T14:27:23.356Z,10.02
2022-10-11T14:30:20.319Z,9.75
2022-10-11T14:32:58.282Z,11.73
2022-10-11T14:35:34.365Z,9.25
2022-10-11T14:40:37.474Z,8.73
2022-10-11T14:43:11.556Z,9.05
2022-10-11T14:45:47.877Z,8.82
2022-10-11T14:48:43.057Z,10.68
2022-10-11T14:51:13.427Z,10.88
2022-10-11T14:53:46.455Z,10.43
2022-10-11T14:56:21.136Z,11.43
2022-10-11T14:58:52.544Z,9.43
2022-10-11T15:01:26.348Z,9.02
2022-10-11T15:03:58.373Z,9.55
2022-10-11T15:06:33.017Z,8.75
2022-10-11T15:09:04.791Z,9.55
2022-10-11T15:11:36.860Z,10.15
2022-10-11T15:14:07.514Z,11.32
2022-10-11T15:16:36.593Z,11.48
2022-10-11T15:19:05.740Z,11.07
2022-10-11T15:21:36.998Z,9.93
2022-10-11T15:24:05.908Z,10.70
2022-10-11T15:26:38.266Z,11.57
2022-10-11T15:29:09.966Z,10.00
2022-10-11T15:31:39.119Z,11.07
2022-10-11T15:34:07.545Z,12.15
2022-10-11T15:36:38.544Z,9.75
2022-10-11T15:39:28.765Z,11.15
2022-10-11T15:42:04.939Z,11.75
2022-10-11T15:44:38.275Z,11.30
2022-10-11T15:49:36.356Z,9.80
2022-10-11T15:52:04.396Z,9.93
2022-10-11T15:54:34.989Z,10.50
2022-10-11T15:57:09.181Z,10.70
2022-10-11T15:59:40.070Z,10.85
2022-10-11T16:02:17.265Z,10.82
2022-10-11T16:04:48.081Z,11.68
2022-10-11T16:07:22.441Z,9.23
2022-10-11T16:09:54.610Z,10.85
2022-10-11T16:12:25.058Z,14.63
2022-10-11T16:14:56.409Z,9.10
2022-10-11T16:17:24.731Z,10.10
2022-10-11T16:19:52.871Z,12.65
2022-10-11T16:22:26.918Z,10.90
2022-10-11T16:24:57.684Z,11.23
2022-10-11T16:27:26.782Z,12.27
2022-10-11T16:29:57.432Z,13.15
2022-10-11T16:32:28.534Z,14.23
2022-10-11T16:34:59.845Z,12.93
2022-10-11T16:37:31.610Z,16.15
2022-10-11T16:39:59.668Z,13.32
2022-10-11T16:42:30.704Z,12.98
2022-10-11T16:45:04.043Z,15.70
2022-10-11T16:50:09.386Z,13.52
2022-10-11T16:52:40.234Z,14.70
2022-10-11T16:55:08.811Z,18.75
2022-10-11T16:57:42.723Z,11.95
2022-10-11T17:00:17.160Z,15.15
2022-10-11T17:02:45.252Z,17.48
2022-10-11T17:05:16.157Z,16.13
2022-10-11T17:07:46.967Z,16.48
2022-10-11T17:10:17.231Z,15.00
2022-10-11T17:12:49.899Z,15.98
2022-10-11T17:15:18.271Z,14.98
2022-10-11T17:17:46.169Z,13.75
2022-10-11T17:20:16.532Z,15.50
2022-10-11T17:22:44.502Z,17.27
2022-10-11T17:25:12.550Z,17.65
2022-10-11T17:27:40.791Z,18.85
2022-10-11T17:30:09.878Z,18.67
2022-10-11T17:32:40.682Z,15.82
2022-10-11T17:35:19.631Z,15.45
2022-10-11T17:37:50.792Z,16.27
2022-10-11T17:40:22.587Z,14.40
2022-10-11T17:42:50.444Z,12.18
2022-10-11T17:45:24.585Z,11.98
2022-10-11T17:48:00.631Z,11.27
2022-10-11T17:50:34.291Z,12.95
2022-10-11T17:53:04.500Z,12.80
2022-10-11T17:55:35.143Z,11.18
2022-10-11T17:58:11.184Z,11.20
2022-10-11T18:00:43.975Z,10.27
2022-10-11T18:03:14.317Z,12.57
2022-10-11T18:05:45.014Z,11.15
2022-10-11T18:08:18.842Z,10.95
2022-10-11T18:10:51.827Z,11.98
2022-10-11T18:13:24.835Z,10.32
2022-10-11T18:15:55.270Z,11.80
2022-10-11T18:18:23.693Z,10.13
2022-10-11T18:20:51.784Z,11.10
2022-10-11T18:23:25.505Z,11.07
2022-10-11T18:25:58.687Z,10.68
2022-10-11T18:28:32.203Z,11.85
2022-10-11T18:31:00.723Z,9.77
2022-10-11T18:33:35.437Z,9.55
2022-10-11T18:36:07.425Z,10.63
2022-10-11T18:38:46.180Z,9.40
2022-10-11T18:41:20.673Z,14.13
2022-10-11T18:43:57.863Z,11.02
2022-10-11T18:46:31.170Z,10.68
2022-10-11T18:49:01.330Z,10.95
2022-10-11T18:51:36.899Z,9.80
2022-10-11T18:54:09.447Z,10.18
2022-10-11T18:56:40.022Z,10.10
2022-10-11T18:59:15.679Z,9.15
2022-10-11T19:01:46.620Z,10.73
2022-10-11T19:04:16.857Z,9.35
2022-10-11T19:06:50.433Z,11.57
2022-10-11T19:09:23.738Z,10.10
2022-10-11T19:11:54.760Z,11.45
2022-10-11T19:14:28.640Z,10.70
2022-10-11T19:16:57.064Z,11.55
2022-10-11T19:19:28.931Z,9.07
2022-10-11T19:21:58.849Z,11.13
2022-10-11T19:24:28.509Z,10.05
2022-10-11T19:27:02.703Z,10.55
2022-10-11T19:29:34.387Z,10.00
2022-10-11T19:32:07.082Z,9.50
2022-10-11T19:34:35.848Z,9.33
2022-10-11T19:37:06.022Z,10.15
2022-10-11T19:39:39.223Z,11.60
2022-10-11T19:42:09.753Z,10.35
2022-10-11T19:44:39.865Z,11.27
2022-10-11T19:47:10.841Z,10.27
2022-10-11T19:49:40.978Z,10.02
2022-10-11T19:52:13.342Z,9.60
2022-10-11T19:54:44.205Z,9.20
2022-10-11T19:57:16.876Z,9.77
2022-10-11T19:59:47.646Z,9.53
2022-10-11T20:02:24.629Z,8.52
2022-10-11T20:05:00.568Z,8.50
2022-10-11T20:07:30.669Z,11.05
2022-10-11T20:10:03.476Z,9.52
2022-10-11T20:12:33.828Z,9.55
2022-10-11T20:15:06.955Z,11.10
2022-10-11T20:17:50.077Z,11.52
2022-10-11T20:20:23.356Z,11.25
2022-10-11T20:22:53.996Z,9.23
2022-10-11T20:25:26.653Z,9.52
2022-10-11T20:27:57.111Z,9.02
2022-10-11T20:30:30.129Z,10.60
2022-10-11T20:33:05.552Z,9.35
2022-10-11T20:35:38.347Z,10.02
2022-10-11T20:38:05.774Z,8.53
2022-10-11T20:40:33.161Z,9.18
2022-10-11T20:43:05.860Z,9.38
2022-10-11T20:45:36.195Z,9.15
2022-10-11T20:48:03.952Z,9.15
2022-10-11T20:50:31.891Z,10.73
2022-10-11T20:53:05.281Z,9.23
2022-10-11T20:55:37.291Z,9.85
2022-10-11T20:58:12.420Z,12.73
2022-10-11T21:00:40.634Z,9.02
2022-10-11T21:03:09.538Z,9.00
2022-10-11T21:05:39.913Z,9.52
2022-10-11T21:08:15.101Z,11.50
2022-10-11T21:10:53.291Z,10.15
2022-10-11T21:13:22.014Z,9.20
2022-10-11T21:15:55.247Z,9.38
2022-10-11T21:18:24.862Z,9.65
2022-10-11T21:20:57.795Z,8.63
2022-10-11T21:23:25.387Z,9.75
2022-10-11T21:26:00.870Z,10.13
2022-10-11T21:28:39.335Z,9.50
2022-10-11T21:31:15.711Z,9.05
2022-10-11T21:33:47.190Z,9.10
2022-10-11T21:36:21.070Z,8.93
2022-10-11T21:38:51.736Z,10.23
2022-10-11T21:41:21.907Z,10.20
2022-10-11T21:43:52.895Z,8.98
2022-10-11T21:46:53.974Z,9.35
2022-10-11T21:49:20.826Z,9.38
2022-10-11T21:51:50.930Z,9.60
2022-10-11T21:54:20.997Z,9.95
2022-10-11T21:56:48.699Z,10.40
2022-10-11T21:59:24.210Z,9.18
2022-10-11T22:02:01.678Z,9.23
2022-10-11T22:04:35.151Z,9.18
2022-10-11T22:07:04.948Z,10.23
2022-10-11T22:09:40.131Z,9.68
2022-10-11T22:12:12.674Z,9.60
2022-10-11T22:14:48.379Z,10.23
2022-10-11T22:17:21.563Z,9.00
2022-10-11T22:19:50.023Z,9.50
2022-10-11T22:22:20.419Z,8.63
2022-10-11T22:24:53.303Z,8.80
2022-10-11T22:27:26.978Z,9.30
2022-10-11T22:30:00.944Z,9.15
2022-10-11T22:32:29.824Z,8.82
2022-10-11T22:34:59.860Z,9.57
2022-10-11T22:37:33.532Z,9.52
2022-10-11T22:40:10.065Z,8.80
2022-10-11T22:42:43.036Z,9.27
2022-10-11T22:45:18.721Z,9.05
2022-10-11T22:47:54.593Z,8.60
2022-10-11T22:50:28.017Z,9.20
2022-10-11T22:55:28.471Z,9.35
2022-10-11T22:58:02.045Z,9.38
2022-10-11T23:03:01.731Z,9.50
2022-10-11T23:05:29.385Z,8.88
2022-10-11T23:08:02.265Z,10.85
2022-10-11T23:10:43.849Z,9.20
2022-10-11T23:13:15.285Z,8.63
2022-10-11T23:15:50.904Z,9.43
2022-10-11T23:18:23.273Z,8.32
2022-10-11T23:20:55.452Z,8.68
2022-10-11T23:23:25.819Z,8.52
2022-10-11T23:26:14.089Z,8.82
2022-10-11T23:28:43.015Z,8.80
2022-10-11T23:31:18.746Z,9.05
2022-10-11T23:33:51.142Z,8.30
2022-10-11T23:36:26.015Z,9.40
2022-10-11T23:38:55.863Z,8.93
2022-10-11T23:41:28.953Z,9.32
2022-10-11T23:43:57.147Z,8.57
2022-10-11T23:46:33.085Z,8.85
2022-10-11T23:49:11.126Z,8.88
2022-10-11T23:51:43.479Z,8.95
2022-10-11T23:54:16.389Z,8.30
2022-10-11T23:56:50.031Z,9.38
2022-10-11T23:59:25.165Z,8.57
